createdAt,value
2022-10-22T00:00:01.223Z,93.57
2022-10-22T00:02:27.939Z,93.88
2022-10-22T00:04:56.971Z,93.71
2022-10-22T00:07:23.763Z,93.45
2022-10-22T00:09:50.224Z,93.51
2022-10-22T00:12:17.198Z,93.46
2022-10-22T00:14:44.066Z,93.61
2022-10-22T00:17:11.745Z,93.67
2022-10-22T00:19:39.211Z,93.82
2022-10-22T00:22:06.540Z,93.89
2022-10-22T00:24:34.280Z,93.87
2022-10-22T00:27:00.924Z,94.07
2022-10-22T00:29:27.449Z,94.13
2022-10-22T00:34:25.591Z,94.10
2022-10-22T00:36:52.616Z,94.32
2022-10-22T00:39:21.021Z,94.29
2022-10-22T00:41:49.665Z,94.26
2022-10-22T00:44:53.299Z,94.30
2022-10-22T00:47:21.069Z,94.42
2022-10-22T00:49:48.107Z,94.29
2022-10-22T00:52:14.758Z,94.65
2022-10-22T00:54:42.413Z,94.63
2022-10-22T00:57:09.420Z,94.73
2022-10-22T00:59:37.675Z,94.84
2022-10-22T01:02:04.248Z,94.83
2022-10-22T01:04:30.695Z,94.63
2022-10-22T01:06:57.155Z,94.55
2022-10-22T01:09:29.629Z,94.45
2022-10-22T01:12:13.685Z,94.47
2022-10-22T01:15:00.577Z,94.32
2022-10-22T01:18:00.531Z,94.60
2022-10-22T01:20:38.978Z,94.38
2022-10-22T01:23:33.373Z,94.28
2022-10-22T01:26:38.402Z,94.10
2022-10-22T01:29:15.773Z,94.16
2022-10-22T01:31:47.929Z,94.21
2022-10-22T01:34:18.194Z,94.11
2022-10-22T01:36:46.870Z,94.08
2022-10-22T01:39:15.385Z,94.11
2022-10-22T01:41:45.437Z,93.83
2022-10-22T01:44:29.481Z,94.19
2022-10-22T01:47:18.341Z,93.64
2022-10-22T01:49:53.836Z,93.48
2022-10-22T01:52:51.734Z,93.48
2022-10-22T01:55:27.472Z,93.51
2022-10-22T01:58:30.443Z,93.55
2022-10-22T02:01:03.155Z,93.69
2022-10-22T02:03:38.121Z,93.77
2022-10-22T02:06:12.905Z,93.53
2022-10-22T02:08:39.621Z,93.76
2022-10-22T02:11:06.473Z,93.66
2022-10-22T02:13:58.511Z,93.67
2022-10-22T02:16:31.695Z,93.56
2022-10-22T02:19:02.538Z,93.59
2022-10-22T02:21:29.687Z,93.64
2022-10-22T02:23:56.455Z,93.30
2022-10-22T02:26:32.065Z,93.59
2022-10-22T02:29:06.739Z,93.19
2022-10-22T02:31:37.564Z,93.56
2022-10-22T02:34:10.196Z,93.56
2022-10-22T02:36:38.810Z,93.74
2022-10-22T02:39:07.992Z,93.99
2022-10-22T02:41:35.258Z,93.89
2022-10-22T02:44:03.023Z,93.98
2022-10-22T02:46:29.437Z,93.74
2022-10-22T02:48:55.860Z,93.86
2022-10-22T02:51:22.314Z,93.80
2022-10-22T02:53:48.751Z,93.38
2022-10-22T02:56:15.251Z,93.90
2022-10-22T02:58:41.800Z,93.76
2022-10-22T03:01:10.283Z,93.80
2022-10-22T03:03:38.909Z,93.88
2022-10-22T03:06:05.544Z,94.10
2022-10-22T03:08:32.173Z,94.05
2022-10-22T03:10:58.658Z,93.66
2022-10-22T03:13:25.173Z,93.51
2022-10-22T03:15:51.620Z,94.08
2022-10-22T03:18:18.257Z,94.28
2022-10-22T03:20:44.700Z,93.85
2022-10-22T03:23:14.874Z,94.38
2022-10-22T03:25:43.451Z,94.09
2022-10-22T03:28:13.259Z,93.97
2022-10-22T03:30:39.706Z,94.22
2022-10-22T03:33:06.136Z,94.40
2022-10-22T03:35:36.520Z,94.11
2022-10-22T03:38:02.973Z,94.22
2022-10-22T03:40:29.568Z,94.09
2022-10-22T03:42:56.078Z,93.71
2022-10-22T03:45:22.501Z,93.90
2022-10-22T03:47:48.923Z,93.67
2022-10-22T03:50:15.569Z,93.75
2022-10-22T03:52:41.975Z,93.83
2022-10-22T03:55:09.176Z,93.82
2022-10-22T03:57:35.941Z,93.85
2022-10-22T04:00:05.124Z,94.08
2022-10-22T04:02:31.547Z,94.19
2022-10-22T04:04:57.941Z,94.31
2022-10-22T04:07:24.379Z,94.32
2022-10-22T04:09:50.804Z,94.57
2022-10-22T04:12:17.979Z,94.31
2022-10-22T04:14:44.382Z,94.34
2022-10-22T04:17:10.908Z,94.20
2022-10-22T04:19:37.395Z,94.29
2022-10-22T04:22:04.147Z,94.40
2022-10-22T04:24:32.002Z,94.47
2022-10-22T04:26:58.750Z,94.26
2022-10-22T04:29:25.521Z,94.33
2022-10-22T04:31:52.412Z,94.41
2022-10-22T04:34:18.827Z,94.26
2022-10-22T04:36:45.287Z,94.23
2022-10-22T04:39:11.788Z,94.09
2022-10-22T04:41:39.343Z,94.16
2022-10-22T04:44:09.892Z,94.22
2022-10-22T04:46:39.987Z,94.49
2022-10-22T04:49:06.429Z,94.71
2022-10-22T04:51:33.203Z,94.51
2022-10-22T04:53:59.805Z,94.92
2022-10-22T04:56:29.492Z,94.82
2022-10-22T04:58:58.786Z,94.29
2022-10-22T05:01:27.999Z,94.47
2022-10-22T05:03:56.224Z,94.20
2022-10-22T05:06:24.215Z,94.19
2022-10-22T05:08:59.140Z,94.39
2022-10-22T05:11:31.528Z,94.53
2022-10-22T05:13:59.602Z,94.61
2022-10-22T05:16:26.554Z,95.01
2022-10-22T05:18:53.411Z,95.22
2022-10-22T05:21:21.472Z,95.65
2022-10-22T05:23:49.671Z,95.42
2022-10-22T05:26:19.482Z,95.72
2022-10-22T05:28:47.768Z,95.23
2022-10-22T05:31:20.474Z,95.40
2022-10-22T05:33:47.194Z,95.58
2022-10-22T05:36:19.456Z,95.09
2022-10-22T05:38:46.295Z,94.93
2022-10-22T05:41:21.526Z,94.77
2022-10-22T05:43:48.238Z,94.80
2022-10-22T05:46:21.969Z,95.20
2022-10-22T05:48:57.136Z,95.60
2022-10-22T05:51:24.492Z,95.57
2022-10-22T05:53:56.338Z,95.15
2022-10-22T05:56:23.328Z,95.30
2022-10-22T05:58:50.459Z,94.86
2022-10-22T06:01:20.252Z,95.40
2022-10-22T06:03:47.711Z,95.75
2022-10-22T06:06:21.554Z,95.76
2022-10-22T06:08:50.380Z,95.80
2022-10-22T06:11:18.731Z,95.63
2022-10-22T06:13:46.069Z,95.72
2022-10-22T06:16:13.379Z,95.76
2022-10-22T06:18:40.101Z,95.86
2022-10-22T06:21:12.341Z,95.80
2022-10-22T06:23:39.609Z,95.93
2022-10-22T06:26:07.121Z,96.09
2022-10-22T06:28:34.286Z,96.12
2022-10-22T06:31:01.774Z,96.26
2022-10-22T06:33:29.595Z,96.45
2022-10-22T06:35:56.105Z,96.51
2022-10-22T06:38:22.595Z,96.45
2022-10-22T06:40:49.084Z,96.47
2022-10-22T06:43:15.553Z,96.64
2022-10-22T06:45:42.015Z,96.64
2022-10-22T06:48:08.498Z,96.72
2022-10-22T06:50:35.317Z,96.67
2022-10-22T06:53:01.754Z,96.51
2022-10-22T06:55:28.549Z,96.52
2022-10-22T06:57:55.649Z,96.58
2022-10-22T07:00:22.455Z,96.64
2022-10-22T07:02:56.426Z,96.59
2022-10-22T07:05:25.578Z,96.54
2022-10-22T07:07:52.005Z,96.67
2022-10-22T07:10:18.604Z,96.68
2022-10-22T07:12:45.106Z,96.76
2022-10-22T07:15:11.780Z,96.45
2022-10-22T07:20:10.382Z,96.35
2022-10-22T07:22:36.884Z,96.40
2022-10-22T07:25:07.186Z,96.30
2022-10-22T07:27:33.957Z,96.21
2022-10-22T07:30:01.443Z,96.27
2022-10-22T07:32:28.220Z,96.05
2022-10-22T07:34:54.664Z,95.89
2022-10-22T07:37:22.096Z,95.79
2022-10-22T07:39:49.638Z,95.67
2022-10-22T07:42:16.337Z,95.46
2022-10-22T07:44:42.847Z,95.37
2022-10-22T07:47:09.286Z,95.21
2022-10-22T07:49:35.703Z,95.13
2022-10-22T07:52:02.117Z,95.19
2022-10-22T07:54:28.642Z,94.90
2022-10-22T07:56:55.073Z,94.76
2022-10-22T07:59:21.528Z,94.62
2022-10-22T08:01:47.982Z,94.75
2022-10-22T08:04:14.482Z,94.79
2022-10-22T08:06:44.515Z,94.78
2022-10-22T08:09:13.712Z,94.59
2022-10-22T08:11:40.187Z,94.52
2022-10-22T08:14:06.637Z,94.51
2022-10-22T08:16:33.095Z,94.28
2022-10-22T08:18:59.535Z,94.26
2022-10-22T08:21:26.755Z,93.91
2022-10-22T08:23:53.385Z,93.85
2022-10-22T08:26:20.037Z,93.66
2022-10-22T08:28:46.507Z,93.44
2022-10-22T08:31:13.625Z,93.34
2022-10-22T08:33:40.163Z,93.08
2022-10-22T08:36:07.722Z,93.44
2022-10-22T08:38:35.255Z,93.20
2022-10-22T08:41:19.841Z,93.04
2022-10-22T08:44:07.349Z,92.66
2022-10-22T08:46:47.368Z,92.31
2022-10-22T08:49:27.315Z,93.03
2022-10-22T08:51:55.827Z,92.83
2022-10-22T08:54:33.496Z,93.20
2022-10-22T08:57:09.057Z,93.22
2022-10-22T08:59:47.136Z,92.54
2022-10-22T09:02:42.709Z,92.59
2022-10-22T09:05:20.224Z,92.58
2022-10-22T09:07:50.184Z,92.19
2022-10-22T09:10:24.819Z,92.33
2022-10-22T09:12:51.452Z,91.91
2022-10-22T09:15:19.262Z,92.12
2022-10-22T09:17:52.383Z,92.20
2022-10-22T09:20:40.760Z,92.50
2022-10-22T09:23:31.636Z,91.89
2022-10-22T09:25:59.573Z,91.81
2022-10-22T09:28:26.069Z,91.56
2022-10-22T09:30:52.596Z,91.82
2022-10-22T09:33:27.601Z,91.66
2022-10-22T09:36:03.209Z,91.31
2022-10-22T09:38:38.998Z,91.93
2022-10-22T09:41:05.882Z,91.73
2022-10-22T09:43:33.548Z,91.41
2022-10-22T09:46:02.612Z,91.72
2022-10-22T09:48:34.480Z,91.20
2022-10-22T09:51:17.725Z,91.70
2022-10-22T09:53:47.092Z,91.38
2022-10-22T09:56:24.787Z,91.67
2022-10-22T09:58:51.901Z,91.38
2022-10-22T10:01:23.715Z,91.65
2022-10-22T10:03:50.345Z,90.46
2022-10-22T10:06:22.463Z,89.98
2022-10-22T10:08:49.777Z,90.08
2022-10-22T10:11:29.063Z,89.49
2022-10-22T10:14:14.337Z,89.93
2022-10-22T10:16:43.042Z,89.72
2022-10-22T10:19:24.676Z,89.91
2022-10-22T10:22:22.076Z,89.72
2022-10-22T10:25:13.036Z,88.74
2022-10-22T10:27:57.995Z,89.81
2022-10-22T10:30:24.893Z,90.20
2022-10-22T10:32:57.293Z,89.44
2022-10-22T10:35:30.051Z,88.83
2022-10-22T10:38:16.694Z,87.70
2022-10-22T10:40:54.415Z,88.05
2022-10-22T10:43:30.195Z,88.62
2022-10-22T10:46:25.719Z,89.26
2022-10-22T10:49:26.157Z,88.13
2022-10-22T10:51:55.516Z,88.09
2022-10-22T10:54:25.101Z,86.00
2022-10-22T10:57:03.106Z,83.92
2022-10-22T10:59:32.165Z,85.21
2022-10-22T11:02:36.043Z,84.51
2022-10-22T11:05:28.453Z,83.94
2022-10-22T11:08:20.395Z,81.47
2022-10-22T11:10:48.953Z,80.24
2022-10-22T11:13:18.747Z,78.52
2022-10-22T11:16:22.953Z,78.33
2022-10-22T11:19:22.962Z,79.56
2022-10-22T11:22:24.547Z,81.37
2022-10-22T11:24:59.104Z,76.83
2022-10-22T11:27:33.423Z,78.54
2022-10-22T11:30:11.794Z,79.86
2022-10-22T11:32:41.576Z,79.49
2022-10-22T11:35:25.893Z,78.20
2022-10-22T11:37:55.541Z,80.46
2022-10-22T11:40:34.274Z,80.86
2022-10-22T11:43:25.435Z,79.82
2022-10-22T11:46:00.780Z,79.93
2022-10-22T11:48:28.766Z,77.39
2022-10-22T11:51:00.978Z,78.25
2022-10-22T11:53:38.898Z,78.27
2022-10-22T11:56:10.217Z,77.54
2022-10-22T11:58:44.809Z,76.30
2022-10-22T12:01:11.260Z,74.67
2022-10-22T12:03:51.375Z,74.94
2022-10-22T12:06:21.439Z,74.76
2022-10-22T12:08:54.425Z,75.13
2022-10-22T12:11:40.246Z,75.79
2022-10-22T12:14:22.898Z,76.53
2022-10-22T12:16:57.857Z,75.53
2022-10-22T12:19:39.360Z,76.11
2022-10-22T12:22:19.510Z,77.10
2022-10-22T12:24:49.479Z,76.44
2022-10-22T12:27:22.846Z,76.62
2022-10-22T12:29:57.597Z,76.55
2022-10-22T12:32:32.654Z,75.72
2022-10-22T12:35:07.924Z,76.17
2022-10-22T12:37:38.437Z,75.85
2022-10-22T12:40:18.283Z,78.21
2022-10-22T12:42:55.022Z,77.29
2022-10-22T12:45:23.195Z,76.01
2022-10-22T12:48:21.797Z,75.70
2022-10-22T12:50:54.369Z,75.11
2022-10-22T12:53:37.849Z,76.11
2022-10-22T12:56:07.742Z,76.66
2022-10-22T12:58:39.523Z,76.96
2022-10-22T13:01:06.592Z,77.68
2022-10-22T13:03:41.630Z,78.81
2022-10-22T13:06:20.531Z,78.41
2022-10-22T13:09:06.202Z,78.32
2022-10-22T13:12:04.738Z,78.09
2022-10-22T13:14:38.056Z,78.70
2022-10-22T13:17:17.817Z,79.10
2022-10-22T13:19:53.305Z,80.54
2022-10-22T13:22:40.723Z,79.83
2022-10-22T13:25:17.141Z,79.64
2022-10-22T13:27:45.067Z,80.09
2022-10-22T13:30:19.831Z,79.96
2022-10-22T13:32:51.887Z,81.40
2022-10-22T13:35:24.165Z,80.44
2022-10-22T13:37:50.721Z,80.52
2022-10-22T13:40:17.807Z,78.75
2022-10-22T13:42:44.386Z,78.18
2022-10-22T13:45:12.421Z,77.43
2022-10-22T13:47:39.623Z,78.10
2022-10-22T13:50:15.820Z,78.06
2022-10-22T13:52:45.972Z,77.73
2022-10-22T13:55:33.695Z,79.31
2022-10-22T13:58:14.017Z,78.43
2022-10-22T14:00:43.966Z,80.39
2022-10-22T14:03:13.336Z,79.64
2022-10-22T14:05:39.765Z,78.28
2022-10-22T14:08:12.878Z,78.63
2022-10-22T14:10:39.443Z,78.66
2022-10-22T14:13:17.023Z,79.24
2022-10-22T14:15:46.546Z,78.31
2022-10-22T14:18:16.967Z,78.74
2022-10-22T14:20:43.606Z,77.88
2022-10-22T14:23:20.419Z,78.31
2022-10-22T14:25:47.555Z,79.08
2022-10-22T14:28:14.573Z,80.13
2022-10-22T14:30:41.157Z,80.49
2022-10-22T14:33:34.172Z,80.46
2022-10-22T14:36:01.369Z,80.73
2022-10-22T14:38:28.683Z,80.51
2022-10-22T14:40:55.211Z,81.19
2022-10-22T14:43:25.156Z,81.62
2022-10-22T14:45:51.799Z,80.91
2022-10-22T14:50:47.593Z,81.10
2022-10-22T14:53:14.882Z,81.14
2022-10-22T14:55:42.915Z,80.51
2022-10-22T14:58:10.056Z,79.45
2022-10-22T15:00:36.904Z,78.70
2022-10-22T15:03:04.437Z,79.12
2022-10-22T15:05:31.255Z,78.19
2022-10-22T15:07:59.205Z,78.81
2022-10-22T15:10:26.738Z,80.04
2022-10-22T15:12:53.424Z,80.01
2022-10-22T15:15:22.633Z,78.39
2022-10-22T15:17:49.744Z,76.84
2022-10-22T15:20:16.294Z,76.62
2022-10-22T15:22:43.173Z,76.96
2022-10-22T15:25:10.225Z,77.98
2022-10-22T15:27:36.718Z,78.22
2022-10-22T15:30:03.909Z,78.68
2022-10-22T15:32:32.264Z,78.92
2022-10-22T15:34:58.788Z,78.65
2022-10-22T15:37:25.256Z,78.32
2022-10-22T15:39:51.706Z,78.56
2022-10-22T15:42:21.001Z,78.76
2022-10-22T15:44:47.426Z,79.18
2022-10-22T15:47:14.017Z,79.59
2022-10-22T15:49:41.842Z,79.62
2022-10-22T15:52:09.102Z,79.66
2022-10-22T15:54:35.781Z,79.53
2022-10-22T15:57:03.898Z,79.65
2022-10-22T15:59:30.661Z,80.06
2022-10-22T16:01:57.084Z,80.44
2022-10-22T16:04:23.497Z,80.78
2022-10-22T16:06:54.934Z,81.09
2022-10-22T16:09:24.314Z,81.34
2022-10-22T16:14:24.060Z,81.31
2022-10-22T16:16:52.792Z,81.59
2022-10-22T16:19:21.189Z,82.06
2022-10-22T16:21:50.759Z,82.88
2022-10-22T16:24:17.786Z,82.76
2022-10-22T16:26:44.367Z,82.98
2022-10-22T16:29:12.527Z,83.36
2022-10-22T16:31:40.642Z,83.59
2022-10-22T16:34:07.637Z,83.92
2022-10-22T16:36:36.149Z,84.51
2022-10-22T16:39:03.719Z,84.64
2022-10-22T16:41:35.115Z,84.53
2022-10-22T16:44:05.293Z,84.31
2022-10-22T16:46:33.317Z,84.66
2022-10-22T16:48:59.887Z,84.85
2022-10-22T16:51:27.876Z,84.90
2022-10-22T16:53:56.137Z,85.55
2022-10-22T16:56:23.574Z,85.71
2022-10-22T16:58:52.516Z,85.73
2022-10-22T17:01:21.039Z,86.45
2022-10-22T17:03:47.673Z,86.48
2022-10-22T17:06:14.795Z,86.45
2022-10-22T17:08:42.134Z,87.00
2022-10-22T17:11:17.185Z,87.23
2022-10-22T17:13:45.767Z,87.29
2022-10-22T17:16:15.505Z,87.67
2022-10-22T17:18:43.242Z,87.17
2022-10-22T17:21:11.500Z,87.38
2022-10-22T17:23:38.433Z,87.43
2022-10-22T17:26:07.182Z,87.56
2022-10-22T17:28:36.226Z,88.05
2022-10-22T17:31:08.908Z,87.78
2022-10-22T17:33:36.414Z,87.76
2022-10-22T17:36:08.946Z,87.96
2022-10-22T17:38:35.593Z,88.26
2022-10-22T17:41:04.387Z,88.07
2022-10-22T17:43:35.611Z,87.82
2022-10-22T17:46:14.865Z,87.80
2022-10-22T17:48:41.464Z,88.15
2022-10-22T17:51:09.486Z,88.42
2022-10-22T17:53:36.111Z,88.03
2022-10-22T17:56:06.952Z,87.72
2022-10-22T17:58:33.419Z,88.18
2022-10-22T18:00:59.909Z,88.32
2022-10-22T18:03:27.869Z,88.28
2022-10-22T18:05:55.242Z,88.33
2022-10-22T18:08:24.057Z,88.79
2022-10-22T18:10:50.557Z,88.36
2022-10-22T18:13:17.031Z,88.46
2022-10-22T18:15:43.463Z,88.73
2022-10-22T18:18:10.031Z,89.06
2022-10-22T18:20:36.494Z,89.38
2022-10-22T18:23:03.619Z,89.03
2022-10-22T18:25:31.772Z,89.14
2022-10-22T18:27:58.338Z,88.95
2022-10-22T18:30:24.808Z,89.00
2022-10-22T18:32:51.780Z,89.15
2022-10-22T18:35:18.298Z,89.17
2022-10-22T18:37:44.926Z,89.07
2022-10-22T18:40:14.652Z,89.16
2022-10-22T18:42:41.845Z,89.50
2022-10-22T18:45:08.974Z,89.03
2022-10-22T18:47:39.833Z,89.17
2022-10-22T18:50:06.713Z,89.34
2022-10-22T18:52:33.733Z,89.17
2022-10-22T18:55:00.154Z,89.08
2022-10-22T18:57:26.609Z,89.32
2022-10-22T18:59:54.699Z,89.50
2022-10-22T19:02:23.680Z,89.54
2022-10-22T19:04:50.117Z,89.31
2022-10-22T19:07:16.597Z,89.42
2022-10-22T19:09:43.079Z,89.70
2022-10-22T19:12:09.631Z,89.78
2022-10-22T19:14:36.371Z,89.85
2022-10-22T19:17:02.940Z,89.85
2022-10-22T19:19:29.375Z,89.91
2022-10-22T19:21:56.610Z,89.98
2022-10-22T19:24:23.066Z,89.99
2022-10-22T19:26:49.930Z,90.50
2022-10-22T19:29:18.804Z,90.97
2022-10-22T19:31:45.859Z,90.64
2022-10-22T19:34:12.453Z,90.48
2022-10-22T19:36:38.944Z,90.73
2022-10-22T19:39:06.125Z,90.85
2022-10-22T19:41:33.241Z,90.49
2022-10-22T19:44:00.822Z,90.59
2022-10-22T19:46:29.217Z,90.88
2022-10-22T19:48:57.300Z,90.85
2022-10-22T19:51:29.833Z,90.86
2022-10-22T19:54:04.642Z,90.71
2022-10-22T19:56:32.031Z,90.83
2022-10-22T19:58:58.815Z,90.76
2022-10-22T20:01:25.824Z,90.74
2022-10-22T20:03:52.699Z,90.88
2022-10-22T20:06:20.006Z,90.81
2022-10-22T20:08:46.778Z,90.75
2022-10-22T20:11:28.397Z,90.45
2022-10-22T20:13:55.252Z,90.62
2022-10-22T20:16:24.293Z,90.60
2022-10-22T20:18:52.514Z,90.69
2022-10-22T20:21:19.799Z,90.48
2022-10-22T20:23:47.387Z,90.57
2022-10-22T20:26:14.032Z,90.46
2022-10-22T20:28:40.492Z,90.52
2022-10-22T20:31:11.903Z,90.53
2022-10-22T20:33:38.358Z,90.17
2022-10-22T20:36:12.821Z,90.81
2022-10-22T20:38:39.370Z,90.37
2022-10-22T20:41:09.929Z,90.32
2022-10-22T20:43:36.379Z,90.42
2022-10-22T20:46:03.478Z,90.61
2022-10-22T20:48:31.343Z,90.48
2022-10-22T20:50:59.545Z,90.63
2022-10-22T20:53:27.381Z,90.79
2022-10-22T20:55:58.947Z,90.70
2022-10-22T20:58:27.064Z,91.03
2022-10-22T21:00:55.137Z,90.69
2022-10-22T21:03:21.755Z,90.86
2022-10-22T21:05:48.497Z,90.92
2022-10-22T21:08:17.916Z,91.31
2022-10-22T21:10:49.159Z,91.08
2022-10-22T21:13:16.638Z,91.30
2022-10-22T21:15:43.227Z,91.37
2022-10-22T21:18:09.693Z,91.41
2022-10-22T21:20:36.269Z,91.40
2022-10-22T21:23:02.736Z,91.42
2022-10-22T21:25:29.187Z,91.53
2022-10-22T21:27:55.710Z,91.50
2022-10-22T21:30:22.173Z,91.60
2022-10-22T21:32:48.777Z,91.93
2022-10-22T21:35:15.261Z,91.76
2022-10-22T21:37:41.895Z,91.91
2022-10-22T21:40:09.049Z,92.03
2022-10-22T21:42:35.494Z,92.01
2022-10-22T21:45:02.052Z,91.74
2022-10-22T21:47:28.555Z,91.51
2022-10-22T21:49:57.111Z,91.66
2022-10-22T21:52:23.838Z,91.89
2022-10-22T21:54:50.273Z,91.64
2022-10-22T21:57:16.711Z,91.59
2022-10-22T21:59:43.114Z,91.30
2022-10-22T22:02:09.600Z,91.52
2022-10-22T22:04:36.085Z,91.83
2022-10-22T22:07:02.526Z,91.77
2022-10-22T22:09:28.958Z,92.04
2022-10-22T22:11:56.158Z,92.39
2022-10-22T22:14:22.635Z,92.03
2022-10-22T22:16:49.140Z,91.94
2022-10-22T22:19:15.582Z,91.95
2022-10-22T22:21:42.230Z,92.25
2022-10-22T22:24:11.253Z,92.24
2022-10-22T22:26:37.775Z,92.23
2022-10-22T22:29:04.226Z,92.23
2022-10-22T22:31:33.650Z,92.05
2022-10-22T22:34:08.540Z,92.13
2022-10-22T22:36:40.822Z,92.20
2022-10-22T22:39:13.378Z,91.91
2022-10-22T22:41:40.947Z,91.62
2022-10-22T22:44:07.428Z,91.58
2022-10-22T22:46:34.160Z,91.84
2022-10-22T22:49:00.710Z,91.90
2022-10-22T22:51:27.325Z,91.98
2022-10-22T22:53:53.980Z,92.17
2022-10-22T22:56:23.600Z,92.26
2022-10-22T22:58:50.418Z,92.14
2022-10-22T23:01:19.488Z,92.21
2022-10-22T23:03:49.318Z,92.03
2022-10-22T23:06:16.183Z,92.01
2022-10-22T23:08:43.271Z,91.61
2022-10-22T23:11:13.831Z,91.77
2022-10-22T23:13:42.083Z,91.67
2022-10-22T23:16:18.788Z,91.70
2022-10-22T23:18:46.769Z,91.68
2022-10-22T23:21:18.772Z,91.53
2022-10-22T23:23:50.614Z,91.54
2022-10-22T23:26:22.942Z,91.74
2022-10-22T23:28:49.577Z,91.65
2022-10-22T23:31:19.194Z,91.77
2022-10-22T23:33:46.091Z,91.59
2022-10-22T23:36:13.138Z,92.07
2022-10-22T23:38:40.740Z,91.92
2022-10-22T23:41:07.743Z,92.04
2022-10-22T23:43:36.135Z,92.01
2022-10-22T23:46:04.750Z,91.99
2022-10-22T23:48:31.531Z,91.87
2022-10-22T23:50:58.094Z,92.04
2022-10-22T23:53:24.564Z,91.83
2022-10-22T23:55:51.008Z,92.16
2022-10-22T23:58:17.458Z,92.10
